Terminal Aerodrome Forecast
Issued by NWS

Home | Current Version | Previous Version | Text Only | Print | Product List | Glossary On
Versions: 1 2 3 4 5 6 7 8 9 10 11 12 13
433
FTUS42 KMLB 272337
TAFLEE
TAF
KLEE 272337Z 2800/2824 14011KT P6SM VCSH SCT025 BKN045 OVC150
      TEMPO 2800/2802 BKN025
     FM280400 15010KT P6SM SCT020 BKN150
     FM280900 16010KT P6SM BKN020
     FM281500 17013G22KT P6SM VCSH SCT020 BKN035=

USA.gov is the U.S. government's official web portal to all federal, state and local government web resources and services.